sensor_id;sensor_type;location;lat;lon;timestamp;P1;durP1;ratioP1;P2;durP2;ratioP2
7340;SDS011;6870;50.944;6.932;2022-12-29T00:01:07;10.70;;;2.30;;
7340;SDS011;6870;50.944;6.932;2022-12-29T00:03:35;2.27;;;1.80;;
7340;SDS011;6870;50.944;6.932;2022-12-29T00:06:05;2.43;;;1.70;;
7340;SDS011;6870;50.944;6.932;2022-12-29T00:08:33;5.50;;;1.90;;
7340;SDS011;6870;50.944;6.932;2022-12-29T00:11:08;3.23;;;1.80;;
7340;SDS011;6870;50.944;6.932;2022-12-29T00:13:38;3.07;;;1.60;;
7340;SDS011;6870;50.944;6.932;2022-12-29T00:16:24;3.20;;;1.80;;
7340;SDS011;6870;50.944;6.932;2022-12-29T00:18:52;2.20;;;1.77;;
7340;SDS011;6870;50.944;6.932;2022-12-29T00:21:22;3.10;;;1.67;;
7340;SDS011;6870;50.944;6.932;2022-12-29T00:24:10;2.20;;;1.70;;
7340;SDS011;6870;50.944;6.932;2022-12-29T00:27:07;2.60;;;1.70;;
7340;SDS011;6870;50.944;6.932;2022-12-29T00:29:56;2.87;;;1.60;;
7340;SDS011;6870;50.944;6.932;2022-12-29T00:32:43;2.50;;;2.10;;
7340;SDS011;6870;50.944;6.932;2022-12-29T00:35:29;4.33;;;2.23;;
7340;SDS011;6870;50.944;6.932;2022-12-29T00:38:03;2.70;;;1.90;;
7340;SDS011;6870;50.944;6.932;2022-12-29T00:40:52;2.70;;;2.20;;
7340;SDS011;6870;50.944;6.932;2022-12-29T00:43:38;1.67;;;1.20;;
7340;SDS011;6870;50.944;6.932;2022-12-29T00:46:23;1.93;;;1.30;;
7340;SDS011;6870;50.944;6.932;2022-12-29T00:48:51;2.03;;;1.53;;
7340;SDS011;6870;50.944;6.932;2022-12-29T00:51:37;2.13;;;1.43;;
7340;SDS011;6870;50.944;6.932;2022-12-29T00:54:06;2.60;;;1.30;;
7340;SDS011;6870;50.944;6.932;2022-12-29T00:56:35;3.03;;;1.60;;
7340;SDS011;6870;50.944;6.932;2022-12-29T00:59:03;4.90;;;2.47;;
7340;SDS011;6870;50.944;6.932;2022-12-29T01:01:34;2.90;;;1.40;;
7340;SDS011;6870;50.944;6.932;2022-12-29T01:04:03;3.00;;;1.43;;
7340;SDS011;6870;50.944;6.932;2022-12-29T01:06:32;3.73;;;1.47;;
7340;SDS011;6870;50.944;6.932;2022-12-29T01:09:02;2.77;;;2.10;;
7340;SDS011;6870;50.944;6.932;2022-12-29T01:11:50;2.60;;;1.20;;
7340;SDS011;6870;50.944;6.932;2022-12-29T01:14:18;3.50;;;1.77;;
7340;SDS011;6870;50.944;6.932;2022-12-29T01:16:47;1.70;;;1.20;;
7340;SDS011;6870;50.944;6.932;2022-12-29T01:19:16;7.20;;;1.90;;
7340;SDS011;6870;50.944;6.932;2022-12-29T01:21:45;2.63;;;1.60;;
7340;SDS011;6870;50.944;6.932;2022-12-29T01:24:13;2.20;;;1.60;;
7340;SDS011;6870;50.944;6.932;2022-12-29T01:26:43;2.27;;;1.33;;
7340;SDS011;6870;50.944;6.932;2022-12-29T01:29:13;2.40;;;1.43;;
7340;SDS011;6870;50.944;6.932;2022-12-29T01:31:41;1.30;;;1.10;;
7340;SDS011;6870;50.944;6.932;2022-12-29T01:34:09;2.90;;;1.70;;
7340;SDS011;6870;50.944;6.932;2022-12-29T01:36:37;2.33;;;1.50;;
7340;SDS011;6870;50.944;6.932;2022-12-29T01:39:05;1.57;;;1.20;;
7340;SDS011;6870;50.944;6.932;2022-12-29T01:41:33;2.70;;;1.60;;
7340;SDS011;6870;50.944;6.932;2022-12-29T01:44:01;2.47;;;1.53;;
7340;SDS011;6870;50.944;6.932;2022-12-29T01:46:31;1.77;;;0.97;;
7340;SDS011;6870;50.944;6.932;2022-12-29T01:51:35;3.70;;;1.50;;
7340;SDS011;6870;50.944;6.932;2022-12-29T01:54:07;1.30;;;1.10;;
7340;SDS011;6870;50.944;6.932;2022-12-29T01:56:40;1.73;;;1.20;;
7340;SDS011;6870;50.944;6.932;2022-12-29T01:59:08;2.37;;;1.60;;
7340;SDS011;6870;50.944;6.932;2022-12-29T02:01:45;3.13;;;1.30;;
7340;SDS011;6870;50.944;6.932;2022-12-29T02:04:13;1.60;;;1.00;;
7340;SDS011;6870;50.944;6.932;2022-12-29T02:06:44;2.83;;;1.70;;
7340;SDS011;6870;50.944;6.932;2022-12-29T02:09:18;1.80;;;1.03;;
7340;SDS011;6870;50.944;6.932;2022-12-29T02:11:47;3.20;;;0.90;;
7340;SDS011;6870;50.944;6.932;2022-12-29T02:14:15;2.37;;;0.93;;
7340;SDS011;6870;50.944;6.932;2022-12-29T02:16:55;1.53;;;1.10;;
7340;SDS011;6870;50.944;6.932;2022-12-29T02:19:42;2.50;;;1.17;;
7340;SDS011;6870;50.944;6.932;2022-12-29T02:22:46;1.67;;;1.00;;
7340;SDS011;6870;50.944;6.932;2022-12-29T02:25:45;2.10;;;1.40;;
7340;SDS011;6870;50.944;6.932;2022-12-29T02:28:45;1.73;;;1.30;;
7340;SDS011;6870;50.944;6.932;2022-12-29T02:31:45;1.67;;;1.00;;
7340;SDS011;6870;50.944;6.932;2022-12-29T02:34:22;2.10;;;1.07;;
7340;SDS011;6870;50.944;6.932;2022-12-29T02:37:00;3.20;;;1.40;;
7340;SDS011;6870;50.944;6.932;2022-12-29T02:39:41;2.03;;;1.07;;
7340;SDS011;6870;50.944;6.932;2022-12-29T02:42:21;2.40;;;1.47;;
7340;SDS011;6870;50.944;6.932;2022-12-29T02:44:59;2.43;;;1.57;;
7340;SDS011;6870;50.944;6.932;2022-12-29T02:47:37;3.67;;;1.47;;
7340;SDS011;6870;50.944;6.932;2022-12-29T02:50:14;1.80;;;1.30;;
7340;SDS011;6870;50.944;6.932;2022-12-29T02:52:48;2.80;;;1.60;;
7340;SDS011;6870;50.944;6.932;2022-12-29T02:55:19;2.33;;;1.40;;
7340;SDS011;6870;50.944;6.932;2022-12-29T02:57:46;8.33;;;1.57;;
7340;SDS011;6870;50.944;6.932;2022-12-29T03:00:15;2.23;;;1.20;;
7340;SDS011;6870;50.944;6.932;2022-12-29T03:05:59;3.33;;;2.30;;
7340;SDS011;6870;50.944;6.932;2022-12-29T03:08:41;2.50;;;2.03;;
7340;SDS011;6870;50.944;6.932;2022-12-29T03:11:16;4.67;;;1.90;;
7340;SDS011;6870;50.944;6.932;2022-12-29T03:14:14;2.30;;;1.77;;
7340;SDS011;6870;50.944;6.932;2022-12-29T03:17:14;2.40;;;1.73;;
7340;SDS011;6870;50.944;6.932;2022-12-29T03:19:54;1.90;;;1.70;;
7340;SDS011;6870;50.944;6.932;2022-12-29T03:22:29;3.50;;;2.20;;
7340;SDS011;6870;50.944;6.932;2022-12-29T03:25:03;2.13;;;1.60;;
7340;SDS011;6870;50.944;6.932;2022-12-29T03:27:39;4.57;;;1.67;;
7340;SDS011;6870;50.944;6.932;2022-12-29T03:30:09;3.90;;;2.30;;
7340;SDS011;6870;50.944;6.932;2022-12-29T03:32:40;3.13;;;2.50;;
7340;SDS011;6870;50.944;6.932;2022-12-29T03:35:14;4.00;;;2.17;;
7340;SDS011;6870;50.944;6.932;2022-12-29T03:37:45;3.77;;;2.63;;
7340;SDS011;6870;50.944;6.932;2022-12-29T03:40:20;4.43;;;2.23;;
7340;SDS011;6870;50.944;6.932;2022-12-29T03:42:50;3.07;;;1.93;;
7340;SDS011;6870;50.944;6.932;2022-12-29T03:45:19;4.60;;;3.00;;
7340;SDS011;6870;50.944;6.932;2022-12-29T03:47:47;3.90;;;2.17;;
7340;SDS011;6870;50.944;6.932;2022-12-29T03:50:16;4.77;;;2.20;;
7340;SDS011;6870;50.944;6.932;2022-12-29T03:52:44;4.70;;;2.73;;
7340;SDS011;6870;50.944;6.932;2022-12-29T03:55:12;3.73;;;2.33;;
7340;SDS011;6870;50.944;6.932;2022-12-29T03:57:41;5.53;;;3.37;;
7340;SDS011;6870;50.944;6.932;2022-12-29T04:00:09;4.63;;;3.10;;
7340;SDS011;6870;50.944;6.932;2022-12-29T04:02:39;4.67;;;2.43;;
7340;SDS011;6870;50.944;6.932;2022-12-29T04:05:08;4.17;;;2.60;;
7340;SDS011;6870;50.944;6.932;2022-12-29T04:07:37;4.20;;;2.77;;
7340;SDS011;6870;50.944;6.932;2022-12-29T04:10:05;5.50;;;3.37;;
7340;SDS011;6870;50.944;6.932;2022-12-29T04:12:34;5.73;;;3.40;;
7340;SDS011;6870;50.944;6.932;2022-12-29T04:15:02;6.20;;;3.40;;
7340;SDS011;6870;50.944;6.932;2022-12-29T04:17:31;6.60;;;3.80;;
7340;SDS011;6870;50.944;6.932;2022-12-29T04:19:59;7.27;;;3.87;;
7340;SDS011;6870;50.944;6.932;2022-12-29T04:22:43;4.70;;;3.43;;
7340;SDS011;6870;50.944;6.932;2022-12-29T04:25:11;5.80;;;3.87;;
7340;SDS011;6870;50.944;6.932;2022-12-29T04:27:39;6.03;;;3.97;;
7340;SDS011;6870;50.944;6.932;2022-12-29T04:30:08;6.50;;;3.80;;
7340;SDS011;6870;50.944;6.932;2022-12-29T04:32:37;5.30;;;3.43;;
7340;SDS011;6870;50.944;6.932;2022-12-29T04:35:06;5.00;;;3.50;;
7340;SDS011;6870;50.944;6.932;2022-12-29T04:37:34;8.07;;;4.20;;
7340;SDS011;6870;50.944;6.932;2022-12-29T04:40:04;7.50;;;4.47;;
7340;SDS011;6870;50.944;6.932;2022-12-29T04:42:34;6.73;;;4.60;;
7340;SDS011;6870;50.944;6.932;2022-12-29T04:45:02;6.67;;;3.63;;
7340;SDS011;6870;50.944;6.932;2022-12-29T04:47:31;7.73;;;4.83;;
7340;SDS011;6870;50.944;6.932;2022-12-29T04:49:59;5.57;;;4.60;;
7340;SDS011;6870;50.944;6.932;2022-12-29T04:52:27;7.50;;;4.97;;
7340;SDS011;6870;50.944;6.932;2022-12-29T04:54:55;9.97;;;5.17;;
7340;SDS011;6870;50.944;6.932;2022-12-29T04:57:25;7.27;;;4.70;;
7340;SDS011;6870;50.944;6.932;2022-12-29T04:59:53;6.47;;;4.30;;
7340;SDS011;6870;50.944;6.932;2022-12-29T05:02:21;8.43;;;5.10;;
7340;SDS011;6870;50.944;6.932;2022-12-29T05:04:50;6.93;;;5.00;;
7340;SDS011;6870;50.944;6.932;2022-12-29T05:07:18;6.60;;;5.17;;
7340;SDS011;6870;50.944;6.932;2022-12-29T05:09:46;8.17;;;5.60;;
7340;SDS011;6870;50.944;6.932;2022-12-29T05:12:14;9.40;;;6.70;;
7340;SDS011;6870;50.944;6.932;2022-12-29T05:14:44;8.70;;;5.43;;
7340;SDS011;6870;50.944;6.932;2022-12-29T05:17:12;6.97;;;5.13;;
7340;SDS011;6870;50.944;6.932;2022-12-29T05:19:40;6.63;;;5.23;;
7340;SDS011;6870;50.944;6.932;2022-12-29T05:22:08;9.17;;;5.23;;
7340;SDS011;6870;50.944;6.932;2022-12-29T05:24:36;9.07;;;5.60;;
7340;SDS011;6870;50.944;6.932;2022-12-29T05:27:04;9.30;;;5.40;;
7340;SDS011;6870;50.944;6.932;2022-12-29T05:29:32;8.50;;;5.43;;
7340;SDS011;6870;50.944;6.932;2022-12-29T05:32:02;8.87;;;6.53;;
7340;SDS011;6870;50.944;6.932;2022-12-29T05:34:30;12.93;;;6.60;;
7340;SDS011;6870;50.944;6.932;2022-12-29T05:36:59;8.57;;;5.57;;
7340;SDS011;6870;50.944;6.932;2022-12-29T05:39:28;9.30;;;6.33;;
7340;SDS011;6870;50.944;6.932;2022-12-29T05:41:56;7.20;;;5.00;;
7340;SDS011;6870;50.944;6.932;2022-12-29T05:44:24;7.73;;;5.10;;
7340;SDS011;6870;50.944;6.932;2022-12-29T05:46:52;7.70;;;5.20;;
7340;SDS011;6870;50.944;6.932;2022-12-29T05:49:22;6.77;;;4.87;;
7340;SDS011;6870;50.944;6.932;2022-12-29T05:51:50;8.23;;;5.20;;
7340;SDS011;6870;50.944;6.932;2022-12-29T05:54:18;9.10;;;6.03;;
7340;SDS011;6870;50.944;6.932;2022-12-29T05:56:46;9.40;;;6.10;;
7340;SDS011;6870;50.944;6.932;2022-12-29T05:59:14;10.23;;;6.10;;
7340;SDS011;6870;50.944;6.932;2022-12-29T06:01:42;9.23;;;5.87;;
7340;SDS011;6870;50.944;6.932;2022-12-29T06:04:10;7.67;;;5.13;;
7340;SDS011;6870;50.944;6.932;2022-12-29T06:06:39;8.10;;;5.63;;
7340;SDS011;6870;50.944;6.932;2022-12-29T06:09:09;10.03;;;6.37;;
7340;SDS011;6870;50.944;6.932;2022-12-29T06:11:37;7.23;;;5.53;;
7340;SDS011;6870;50.944;6.932;2022-12-29T06:14:05;7.03;;;5.30;;
7340;SDS011;6870;50.944;6.932;2022-12-29T06:16:33;7.93;;;5.63;;
7340;SDS011;6870;50.944;6.932;2022-12-29T06:19:02;6.97;;;4.90;;
7340;SDS011;6870;50.944;6.932;2022-12-29T06:21:30;6.37;;;4.90;;
7340;SDS011;6870;50.944;6.932;2022-12-29T06:23:59;6.03;;;4.70;;
7340;SDS011;6870;50.944;6.932;2022-12-29T06:26:27;7.53;;;5.33;;
7340;SDS011;6870;50.944;6.932;2022-12-29T06:28:55;9.50;;;5.23;;
7340;SDS011;6870;50.944;6.932;2022-12-29T06:31:23;7.57;;;5.50;;
7340;SDS011;6870;50.944;6.932;2022-12-29T06:33:52;7.70;;;5.20;;
7340;SDS011;6870;50.944;6.932;2022-12-29T06:36:20;7.67;;;4.63;;
7340;SDS011;6870;50.944;6.932;2022-12-29T06:38:47;4.53;;;4.03;;
7340;SDS011;6870;50.944;6.932;2022-12-29T06:41:19;9.43;;;5.70;;
7340;SDS011;6870;50.944;6.932;2022-12-29T06:43:57;6.47;;;4.33;;
7340;SDS011;6870;50.944;6.932;2022-12-29T06:46:25;8.70;;;5.00;;
7340;SDS011;6870;50.944;6.932;2022-12-29T06:48:53;8.23;;;5.93;;
7340;SDS011;6870;50.944;6.932;2022-12-29T06:51:21;8.50;;;4.50;;
7340;SDS011;6870;50.944;6.932;2022-12-29T06:53:49;6.33;;;4.30;;
7340;SDS011;6870;50.944;6.932;2022-12-29T06:56:17;8.67;;;4.70;;
7340;SDS011;6870;50.944;6.932;2022-12-29T06:58:46;6.13;;;4.17;;
7340;SDS011;6870;50.944;6.932;2022-12-29T07:01:14;7.43;;;4.70;;
7340;SDS011;6870;50.944;6.932;2022-12-29T07:03:42;6.60;;;4.83;;
7340;SDS011;6870;50.944;6.932;2022-12-29T07:06:10;6.67;;;4.43;;
7340;SDS011;6870;50.944;6.932;2022-12-29T07:08:39;6.37;;;4.50;;
7340;SDS011;6870;50.944;6.932;2022-12-29T07:11:07;6.23;;;4.27;;
7340;SDS011;6870;50.944;6.932;2022-12-29T07:13:35;5.97;;;3.70;;
7340;SDS011;6870;50.944;6.932;2022-12-29T07:16:08;6.37;;;4.20;;
7340;SDS011;6870;50.944;6.932;2022-12-29T07:18:37;6.73;;;4.33;;
7340;SDS011;6870;50.944;6.932;2022-12-29T07:21:05;6.53;;;4.13;;
7340;SDS011;6870;50.944;6.932;2022-12-29T07:23:33;5.70;;;4.13;;
7340;SDS011;6870;50.944;6.932;2022-12-29T07:26:01;5.60;;;3.80;;
7340;SDS011;6870;50.944;6.932;2022-12-29T07:28:31;5.70;;;3.90;;
7340;SDS011;6870;50.944;6.932;2022-12-29T07:31:00;6.60;;;4.37;;
7340;SDS011;6870;50.944;6.932;2022-12-29T07:33:29;5.53;;;3.80;;
7340;SDS011;6870;50.944;6.932;2022-12-29T07:35:59;5.37;;;3.30;;
7340;SDS011;6870;50.944;6.932;2022-12-29T07:38:27;6.27;;;3.87;;
7340;SDS011;6870;50.944;6.932;2022-12-29T07:40:58;4.73;;;3.27;;
7340;SDS011;6870;50.944;6.932;2022-12-29T07:43:26;5.80;;;3.67;;
7340;SDS011;6870;50.944;6.932;2022-12-29T07:45:54;4.77;;;2.67;;
7340;SDS011;6870;50.944;6.932;2022-12-29T07:48:23;4.53;;;3.20;;
7340;SDS011;6870;50.944;6.932;2022-12-29T07:50:52;8.63;;;3.70;;
7340;SDS011;6870;50.944;6.932;2022-12-29T07:53:20;5.60;;;3.60;;
7340;SDS011;6870;50.944;6.932;2022-12-29T07:55:49;3.70;;;2.70;;
7340;SDS011;6870;50.944;6.932;2022-12-29T07:58:17;5.33;;;3.60;;
7340;SDS011;6870;50.944;6.932;2022-12-29T08:00:45;5.90;;;2.83;;
7340;SDS011;6870;50.944;6.932;2022-12-29T08:03:13;5.10;;;3.27;;
7340;SDS011;6870;50.944;6.932;2022-12-29T08:05:41;9.27;;;4.10;;
7340;SDS011;6870;50.944;6.932;2022-12-29T08:08:11;11.50;;;5.00;;
7340;SDS011;6870;50.944;6.932;2022-12-29T08:10:39;9.90;;;4.80;;
7340;SDS011;6870;50.944;6.932;2022-12-29T08:13:07;9.57;;;4.87;;
7340;SDS011;6870;50.944;6.932;2022-12-29T08:15:36;9.33;;;4.87;;
7340;SDS011;6870;50.944;6.932;2022-12-29T08:18:05;10.63;;;5.30;;
7340;SDS011;6870;50.944;6.932;2022-12-29T08:20:33;7.97;;;4.37;;
7340;SDS011;6870;50.944;6.932;2022-12-29T08:23:01;10.80;;;5.03;;
7340;SDS011;6870;50.944;6.932;2022-12-29T08:25:30;8.43;;;4.30;;
7340;SDS011;6870;50.944;6.932;2022-12-29T08:27:59;11.30;;;5.20;;
7340;SDS011;6870;50.944;6.932;2022-12-29T08:30:27;12.67;;;5.37;;
7340;SDS011;6870;50.944;6.932;2022-12-29T08:32:55;14.97;;;5.27;;
7340;SDS011;6870;50.944;6.932;2022-12-29T08:35:23;12.80;;;5.80;;
7340;SDS011;6870;50.944;6.932;2022-12-29T08:37:51;12.00;;;5.60;;
7340;SDS011;6870;50.944;6.932;2022-12-29T08:40:19;7.90;;;4.00;;
7340;SDS011;6870;50.944;6.932;2022-12-29T08:42:50;14.33;;;5.93;;
7340;SDS011;6870;50.944;6.932;2022-12-29T08:45:18;11.87;;;4.77;;
7340;SDS011;6870;50.944;6.932;2022-12-29T08:47:46;14.17;;;5.10;;
7340;SDS011;6870;50.944;6.932;2022-12-29T08:50:14;9.57;;;4.60;;
7340;SDS011;6870;50.944;6.932;2022-12-29T08:52:42;8.73;;;4.20;;
7340;SDS011;6870;50.944;6.932;2022-12-29T08:55:10;10.00;;;4.57;;
7340;SDS011;6870;50.944;6.932;2022-12-29T08:57:38;13.83;;;4.47;;
7340;SDS011;6870;50.944;6.932;2022-12-29T09:00:09;12.33;;;4.80;;
7340;SDS011;6870;50.944;6.932;2022-12-29T09:02:38;10.30;;;3.57;;
7340;SDS011;6870;50.944;6.932;2022-12-29T09:05:06;6.20;;;3.23;;
7340;SDS011;6870;50.944;6.932;2022-12-29T09:07:35;6.37;;;4.43;;
7340;SDS011;6870;50.944;6.932;2022-12-29T09:10:04;8.77;;;3.43;;
7340;SDS011;6870;50.944;6.932;2022-12-29T09:12:33;10.47;;;3.90;;
7340;SDS011;6870;50.944;6.932;2022-12-29T09:15:02;6.40;;;3.60;;
7340;SDS011;6870;50.944;6.932;2022-12-29T09:17:33;6.20;;;3.10;;
7340;SDS011;6870;50.944;6.932;2022-12-29T09:20:09;7.93;;;3.20;;
7340;SDS011;6870;50.944;6.932;2022-12-29T09:22:37;8.77;;;3.47;;
7340;SDS011;6870;50.944;6.932;2022-12-29T09:25:06;8.27;;;3.83;;
7340;SDS011;6870;50.944;6.932;2022-12-29T09:27:35;7.10;;;3.27;;
7340;SDS011;6870;50.944;6.932;2022-12-29T09:30:05;4.00;;;2.83;;
7340;SDS011;6870;50.944;6.932;2022-12-29T09:32:37;12.17;;;2.93;;
7340;SDS011;6870;50.944;6.932;2022-12-29T09:35:10;6.20;;;3.57;;
7340;SDS011;6870;50.944;6.932;2022-12-29T09:37:38;4.80;;;2.40;;
7340;SDS011;6870;50.944;6.932;2022-12-29T09:40:06;5.80;;;2.90;;
7340;SDS011;6870;50.944;6.932;2022-12-29T09:42:45;5.33;;;2.67;;
7340;SDS011;6870;50.944;6.932;2022-12-29T09:45:40;5.80;;;3.00;;
7340;SDS011;6870;50.944;6.932;2022-12-29T09:48:16;8.00;;;2.70;;
7340;SDS011;6870;50.944;6.932;2022-12-29T09:50:48;7.50;;;3.90;;
7340;SDS011;6870;50.944;6.932;2022-12-29T09:53:21;7.33;;;2.80;;
7340;SDS011;6870;50.944;6.932;2022-12-29T09:55:55;5.43;;;3.00;;
7340;SDS011;6870;50.944;6.932;2022-12-29T09:58:26;8.13;;;3.00;;
7340;SDS011;6870;50.944;6.932;2022-12-29T10:01:01;7.40;;;2.63;;
7340;SDS011;6870;50.944;6.932;2022-12-29T10:03:37;5.80;;;2.87;;
7340;SDS011;6870;50.944;6.932;2022-12-29T10:06:13;5.07;;;2.33;;
7340;SDS011;6870;50.944;6.932;2022-12-29T10:08:51;5.17;;;2.40;;
7340;SDS011;6870;50.944;6.932;2022-12-29T10:11:31;3.20;;;1.80;;
7340;SDS011;6870;50.944;6.932;2022-12-29T10:14:24;3.87;;;2.50;;
7340;SDS011;6870;50.944;6.932;2022-12-29T10:17:06;7.10;;;2.70;;
7340;SDS011;6870;50.944;6.932;2022-12-29T10:19:55;5.53;;;2.50;;
7340;SDS011;6870;50.944;6.932;2022-12-29T10:22:43;5.13;;;2.50;;
7340;SDS011;6870;50.944;6.932;2022-12-29T10:25:26;5.80;;;2.07;;
7340;SDS011;6870;50.944;6.932;2022-12-29T10:28:00;5.57;;;2.70;;
7340;SDS011;6870;50.944;6.932;2022-12-29T10:30:32;5.60;;;2.50;;
7340;SDS011;6870;50.944;6.932;2022-12-29T10:33:01;4.70;;;2.30;;
7340;SDS011;6870;50.944;6.932;2022-12-29T10:35:36;4.80;;;2.03;;
7340;SDS011;6870;50.944;6.932;2022-12-29T10:38:10;7.40;;;2.33;;
7340;SDS011;6870;50.944;6.932;2022-12-29T10:40:46;4.30;;;2.27;;
7340;SDS011;6870;50.944;6.932;2022-12-29T10:43:20;4.97;;;2.30;;
7340;SDS011;6870;50.944;6.932;2022-12-29T10:45:53;5.77;;;2.10;;
7340;SDS011;6870;50.944;6.932;2022-12-29T10:48:27;5.80;;;2.60;;
7340;SDS011;6870;50.944;6.932;2022-12-29T10:51:02;9.40;;;3.00;;
7340;SDS011;6870;50.944;6.932;2022-12-29T10:53:33;4.40;;;2.13;;
7340;SDS011;6870;50.944;6.932;2022-12-29T10:56:09;4.30;;;2.00;;
7340;SDS011;6870;50.944;6.932;2022-12-29T10:58:48;4.33;;;2.20;;
7340;SDS011;6870;50.944;6.932;2022-12-29T11:01:17;4.03;;;1.80;;
7340;SDS011;6870;50.944;6.932;2022-12-29T11:03:48;5.43;;;2.30;;
7340;SDS011;6870;50.944;6.932;2022-12-29T11:06:27;5.50;;;1.90;;
7340;SDS011;6870;50.944;6.932;2022-12-29T11:08:57;7.90;;;2.40;;
7340;SDS011;6870;50.944;6.932;2022-12-29T11:11:32;7.13;;;2.80;;
7340;SDS011;6870;50.944;6.932;2022-12-29T11:14:08;3.90;;;1.70;;
7340;SDS011;6870;50.944;6.932;2022-12-29T11:16:40;8.83;;;2.20;;
7340;SDS011;6870;50.944;6.932;2022-12-29T11:19:20;5.63;;;2.27;;
7340;SDS011;6870;50.944;6.932;2022-12-29T11:21:51;3.10;;;1.83;;
7340;SDS011;6870;50.944;6.932;2022-12-29T11:24:21;6.27;;;2.03;;
7340;SDS011;6870;50.944;6.932;2022-12-29T11:26:51;5.13;;;2.27;;
7340;SDS011;6870;50.944;6.932;2022-12-29T11:29:24;12.10;;;2.60;;
7340;SDS011;6870;50.944;6.932;2022-12-29T11:31:55;4.20;;;2.10;;
7340;SDS011;6870;50.944;6.932;2022-12-29T11:34:26;7.53;;;1.60;;
7340;SDS011;6870;50.944;6.932;2022-12-29T11:37:02;5.20;;;1.83;;
7340;SDS011;6870;50.944;6.932;2022-12-29T11:39:34;3.37;;;1.43;;
7340;SDS011;6870;50.944;6.932;2022-12-29T11:42:12;7.33;;;2.00;;
7340;SDS011;6870;50.944;6.932;2022-12-29T11:44:43;7.00;;;2.30;;
7340;SDS011;6870;50.944;6.932;2022-12-29T11:47:20;4.70;;;1.70;;
7340;SDS011;6870;50.944;6.932;2022-12-29T11:49:55;12.53;;;2.10;;
7340;SDS011;6870;50.944;6.932;2022-12-29T11:52:28;11.43;;;2.13;;
7340;SDS011;6870;50.944;6.932;2022-12-29T11:54:59;10.83;;;2.37;;
7340;SDS011;6870;50.944;6.932;2022-12-29T11:57:29;4.80;;;2.07;;
7340;SDS011;6870;50.944;6.932;2022-12-29T12:00:02;6.30;;;1.93;;
7340;SDS011;6870;50.944;6.932;2022-12-29T12:02:44;4.90;;;1.70;;
7340;SDS011;6870;50.944;6.932;2022-12-29T12:05:22;6.70;;;1.77;;
7340;SDS011;6870;50.944;6.932;2022-12-29T12:08:01;6.60;;;2.13;;
7340;SDS011;6870;50.944;6.932;2022-12-29T12:10:44;5.90;;;2.20;;
7340;SDS011;6870;50.944;6.932;2022-12-29T12:13:22;5.77;;;2.43;;
7340;SDS011;6870;50.944;6.932;2022-12-29T12:15:59;4.23;;;2.10;;
7340;SDS011;6870;50.944;6.932;2022-12-29T12:18:36;5.27;;;2.20;;
7340;SDS011;6870;50.944;6.932;2022-12-29T12:21:10;3.33;;;1.50;;
7340;SDS011;6870;50.944;6.932;2022-12-29T12:23:56;4.53;;;1.90;;
7340;SDS011;6870;50.944;6.932;2022-12-29T12:26:47;6.63;;;1.90;;
7340;SDS011;6870;50.944;6.932;2022-12-29T12:29:28;5.70;;;1.87;;
7340;SDS011;6870;50.944;6.932;2022-12-29T12:32:04;4.73;;;1.43;;
7340;SDS011;6870;50.944;6.932;2022-12-29T12:34:43;5.60;;;1.80;;
7340;SDS011;6870;50.944;6.932;2022-12-29T12:37:23;4.77;;;1.90;;
7340;SDS011;6870;50.944;6.932;2022-12-29T12:43:06;3.80;;;1.83;;
7340;SDS011;6870;50.944;6.932;2022-12-29T12:45:55;6.50;;;1.73;;
7340;SDS011;6870;50.944;6.932;2022-12-29T12:51:42;2.97;;;1.63;;
7340;SDS011;6870;50.944;6.932;2022-12-29T12:54:20;3.17;;;1.60;;
7340;SDS011;6870;50.944;6.932;2022-12-29T12:57:05;3.87;;;1.70;;
7340;SDS011;6870;50.944;6.932;2022-12-29T12:59:45;5.27;;;2.20;;
7340;SDS011;6870;50.944;6.932;2022-12-29T13:02:24;4.27;;;2.00;;
7340;SDS011;6870;50.944;6.932;2022-12-29T13:05:21;5.10;;;1.83;;
7340;SDS011;6870;50.944;6.932;2022-12-29T13:08:18;6.43;;;1.70;;
7340;SDS011;6870;50.944;6.932;2022-12-29T13:11:23;4.00;;;2.00;;
7340;SDS011;6870;50.944;6.932;2022-12-29T13:14:09;5.30;;;2.00;;
7340;SDS011;6870;50.944;6.932;2022-12-29T13:16:53;3.87;;;2.27;;
7340;SDS011;6870;50.944;6.932;2022-12-29T13:19:30;2.53;;;1.30;;
7340;SDS011;6870;50.944;6.932;2022-12-29T13:22:06;3.67;;;1.57;;
7340;SDS011;6870;50.944;6.932;2022-12-29T13:24:47;5.73;;;1.57;;
7340;SDS011;6870;50.944;6.932;2022-12-29T13:27:27;3.10;;;1.13;;
7340;SDS011;6870;50.944;6.932;2022-12-29T13:30:08;7.67;;;1.60;;
7340;SDS011;6870;50.944;6.932;2022-12-29T13:32:44;3.53;;;1.40;;
7340;SDS011;6870;50.944;6.932;2022-12-29T13:35:25;3.30;;;1.97;;
7340;SDS011;6870;50.944;6.932;2022-12-29T13:38:09;6.27;;;1.70;;
7340;SDS011;6870;50.944;6.932;2022-12-29T13:40:43;8.10;;;2.30;;
7340;SDS011;6870;50.944;6.932;2022-12-29T13:43:16;2.80;;;1.80;;
7340;SDS011;6870;50.944;6.932;2022-12-29T13:45:46;3.93;;;1.97;;
7340;SDS011;6870;50.944;6.932;2022-12-29T13:48:26;5.47;;;1.70;;
7340;SDS011;6870;50.944;6.932;2022-12-29T13:51:05;11.13;;;2.97;;
7340;SDS011;6870;50.944;6.932;2022-12-29T13:53:37;8.17;;;2.60;;
7340;SDS011;6870;50.944;6.932;2022-12-29T13:56:21;9.10;;;2.37;;
7340;SDS011;6870;50.944;6.932;2022-12-29T13:58:54;5.40;;;2.43;;
7340;SDS011;6870;50.944;6.932;2022-12-29T14:01:29;6.50;;;2.57;;
7340;SDS011;6870;50.944;6.932;2022-12-29T14:04:02;4.70;;;2.50;;
7340;SDS011;6870;50.944;6.932;2022-12-29T14:06:38;6.87;;;2.33;;
7340;SDS011;6870;50.944;6.932;2022-12-29T14:12:18;5.00;;;2.37;;
7340;SDS011;6870;50.944;6.932;2022-12-29T14:15:03;5.30;;;2.30;;
7340;SDS011;6870;50.944;6.932;2022-12-29T14:17:43;8.37;;;2.67;;
7340;SDS011;6870;50.944;6.932;2022-12-29T14:20:18;5.03;;;3.17;;
7340;SDS011;6870;50.944;6.932;2022-12-29T14:22:55;6.00;;;2.03;;
7340;SDS011;6870;50.944;6.932;2022-12-29T14:28:27;6.40;;;2.00;;
7340;SDS011;6870;50.944;6.932;2022-12-29T14:30:57;3.50;;;2.07;;
7340;SDS011;6870;50.944;6.932;2022-12-29T14:33:29;13.03;;;2.63;;
7340;SDS011;6870;50.944;6.932;2022-12-29T14:38:46;6.77;;;2.60;;
7340;SDS011;6870;50.944;6.932;2022-12-29T14:41:17;3.63;;;2.20;;
7340;SDS011;6870;50.944;6.932;2022-12-29T14:43:57;3.27;;;2.37;;
7340;SDS011;6870;50.944;6.932;2022-12-29T14:46:45;4.80;;;2.07;;
7340;SDS011;6870;50.944;6.932;2022-12-29T14:49:23;4.50;;;2.60;;
7340;SDS011;6870;50.944;6.932;2022-12-29T14:51:54;6.03;;;2.40;;
7340;SDS011;6870;50.944;6.932;2022-12-29T14:54:41;5.60;;;2.33;;
7340;SDS011;6870;50.944;6.932;2022-12-29T14:57:25;5.23;;;2.10;;
7340;SDS011;6870;50.944;6.932;2022-12-29T15:00:02;3.73;;;2.23;;
7340;SDS011;6870;50.944;6.932;2022-12-29T15:02:43;6.43;;;2.23;;
7340;SDS011;6870;50.944;6.932;2022-12-29T15:05:28;3.80;;;2.40;;
7340;SDS011;6870;50.944;6.932;2022-12-29T15:08:01;5.00;;;2.53;;
7340;SDS011;6870;50.944;6.932;2022-12-29T15:10:35;6.13;;;3.00;;
7340;SDS011;6870;50.944;6.932;2022-12-29T15:13:13;3.57;;;2.30;;
7340;SDS011;6870;50.944;6.932;2022-12-29T15:15:44;4.43;;;2.60;;
7340;SDS011;6870;50.944;6.932;2022-12-29T15:18:21;4.13;;;1.90;;
7340;SDS011;6870;50.944;6.932;2022-12-29T15:20:55;4.33;;;2.33;;
7340;SDS011;6870;50.944;6.932;2022-12-29T15:23:25;3.77;;;2.27;;
7340;SDS011;6870;50.944;6.932;2022-12-29T15:25:55;3.40;;;2.47;;
7340;SDS011;6870;50.944;6.932;2022-12-29T15:28:25;5.50;;;2.97;;
7340;SDS011;6870;50.944;6.932;2022-12-29T15:30:54;6.97;;;2.27;;
7340;SDS011;6870;50.944;6.932;2022-12-29T15:33:25;8.60;;;2.27;;
7340;SDS011;6870;50.944;6.932;2022-12-29T15:35:57;3.53;;;2.20;;
7340;SDS011;6870;50.944;6.932;2022-12-29T15:38:33;4.50;;;2.10;;
7340;SDS011;6870;50.944;6.932;2022-12-29T15:41:06;7.20;;;2.70;;
7340;SDS011;6870;50.944;6.932;2022-12-29T15:43:53;3.67;;;2.23;;
7340;SDS011;6870;50.944;6.932;2022-12-29T15:46:30;3.10;;;2.30;;
7340;SDS011;6870;50.944;6.932;2022-12-29T15:48:58;2.43;;;1.77;;
7340;SDS011;6870;50.944;6.932;2022-12-29T15:51:28;3.67;;;2.23;;
7340;SDS011;6870;50.944;6.932;2022-12-29T15:54:00;3.80;;;2.57;;
7340;SDS011;6870;50.944;6.932;2022-12-29T15:56:28;4.07;;;2.50;;
7340;SDS011;6870;50.944;6.932;2022-12-29T15:58:59;3.83;;;2.00;;
7340;SDS011;6870;50.944;6.932;2022-12-29T16:01:28;3.50;;;2.30;;
7340;SDS011;6870;50.944;6.932;2022-12-29T16:04:00;5.40;;;2.33;;
7340;SDS011;6870;50.944;6.932;2022-12-29T16:06:34;6.00;;;2.30;;
7340;SDS011;6870;50.944;6.932;2022-12-29T16:09:04;4.13;;;2.13;;
7340;SDS011;6870;50.944;6.932;2022-12-29T16:11:35;4.63;;;2.33;;
7340;SDS011;6870;50.944;6.932;2022-12-29T16:14:06;5.33;;;2.50;;